Terminal Aerodrome Forecast
Issued by NWS Paducah, KY

Home | Current Version | Previous Version | Text Only | Print | Product List | Glossary Off
Versions: 1 2 3 4 5 6 7 8 9 10 11 12 13 14 15 16 17 18

000
FTUS43 KPAH 250520
TAFEVV
TAF
KEVV 250520Z 2506/2606 17010KT P6SM VCSH SCT025 BKN050
      TEMPO 2506/2508 5SM -TSRA BR BKN025CB
     FM251400 20013KT P6SM SCT035 BKN100
     FM251900 19013KT P6SM SCT050 BKN150
     FM260000 17008KT P6SM SCT040 BKN070=

USA.gov is the U.S. government's official web portal to all federal, state and local government web resources and services.